Terminal Aerodrome Forecast
Issued by NWS

Home | Current Version | Previous Version | Text Only | Print | Product List | Glossary On
Versions: 1 2 3 4 5 6 7 8 9 10 11 12 13 14 15 16
000
FTUS43 KICT 200500
TAFCNU
TAF
KCNU 200522Z 2006/2106 17008KT P6SM SCT250
     FM201500 19016G23KT P6SM SCT250
     FM210000 18010KT P6SM SCT250=

USA.gov is the U.S. government's official web portal to all federal, state and local government web resources and services.